Terminal Aerodrome Forecast
Issued by NWS

Home | Current Version | Previous Version | Graphics & Text | Print | Product List | Glossary On
Versions: 1 2 3 4 5 6 7 8 9 10 11 12 13 14 15 16 17 18 19
000
FTUS43 KBIS 231100
TAFDIK
TAF
KDIK 231140Z 2312/2412 11010KT P6SM SKC
     FM231500 13015KT P6SM VCSH BKN100
     FM231800 14016KT P6SM VCSH BKN070 OVC100
     FM240000 11008KT P6SM SCT060=

USA.gov is the U.S. government's official web portal to all federal, state and local government web resources and services.